createdAt,value
2022-10-16T00:00:39.376Z,13.24
2022-10-16T00:03:07.001Z,13.22
2022-10-16T00:05:34.463Z,13.22
2022-10-16T00:08:01.223Z,13.20
2022-10-16T00:10:27.864Z,13.20
2022-10-16T00:12:54.474Z,13.19
2022-10-16T00:15:21.200Z,13.18
2022-10-16T00:17:47.834Z,13.19
2022-10-16T00:20:14.416Z,13.13
2022-10-16T00:22:41.226Z,13.11
2022-10-16T00:25:08.189Z,13.10
2022-10-16T00:27:35.307Z,13.09
2022-10-16T00:30:02.000Z,13.08
2022-10-16T00:32:28.998Z,13.08
2022-10-16T00:34:55.764Z,13.12
2022-10-16T00:37:22.368Z,13.13
2022-10-16T00:39:49.004Z,13.15
2022-10-16T00:42:19.480Z,13.15
2022-10-16T00:44:53.470Z,13.17
2022-10-16T00:47:25.226Z,13.15
2022-10-16T00:49:56.954Z,13.13
2022-10-16T00:52:23.744Z,13.10
2022-10-16T00:54:51.824Z,13.11
2022-10-16T00:57:18.592Z,13.09
2022-10-16T00:59:46.062Z,13.05
2022-10-16T01:02:15.955Z,13.04
2022-10-16T01:04:53.326Z,13.00
2022-10-16T01:07:27.430Z,12.96
2022-10-16T01:10:00.416Z,12.90
2022-10-16T01:12:44.234Z,12.91
2022-10-16T01:15:29.040Z,12.88
2022-10-16T01:18:07.189Z,12.84
2022-10-16T01:20:41.048Z,12.81
2022-10-16T01:23:26.241Z,12.78
2022-10-16T01:26:31.403Z,12.73
2022-10-16T01:29:18.044Z,12.73
2022-10-16T01:31:51.414Z,12.71
2022-10-16T01:34:24.904Z,12.71
2022-10-16T01:36:57.440Z,12.73
2022-10-16T01:39:29.302Z,12.72
2022-10-16T01:42:00.421Z,12.71
2022-10-16T01:44:32.184Z,12.73
2022-10-16T01:47:00.445Z,12.73
2022-10-16T01:49:32.290Z,12.73
2022-10-16T01:54:34.414Z,12.79
2022-10-16T01:57:02.296Z,12.74
2022-10-16T01:59:32.784Z,12.75
2022-10-16T02:02:07.711Z,12.71
2022-10-16T02:04:39.555Z,12.70
2022-10-16T02:07:06.451Z,12.66
2022-10-16T02:09:35.584Z,12.62
2022-10-16T02:12:10.461Z,12.57
2022-10-16T02:14:39.430Z,12.50
2022-10-16T02:17:15.232Z,12.48
2022-10-16T02:19:42.937Z,12.47
2022-10-16T02:22:16.146Z,12.48
2022-10-16T02:24:51.564Z,12.43
2022-10-16T02:27:43.202Z,12.39
2022-10-16T02:30:20.495Z,12.36
2022-10-16T02:32:50.308Z,12.38
2022-10-16T02:35:19.743Z,12.33
2022-10-16T02:37:47.896Z,12.31
2022-10-16T02:40:14.890Z,12.26
2022-10-16T02:42:42.051Z,12.29
2022-10-16T02:45:11.292Z,12.27
2022-10-16T02:47:38.316Z,12.25
2022-10-16T02:50:05.462Z,12.28
2022-10-16T02:52:32.025Z,12.25
2022-10-16T02:54:58.610Z,12.23
2022-10-16T02:57:25.553Z,12.23
2022-10-16T02:59:52.472Z,12.20
2022-10-16T03:02:19.304Z,12.19
2022-10-16T03:04:45.925Z,12.21
2022-10-16T03:07:12.596Z,12.20
2022-10-16T03:09:39.201Z,12.19
2022-10-16T03:12:06.040Z,12.17
2022-10-16T03:14:32.694Z,12.16
2022-10-16T03:16:59.285Z,12.16
2022-10-16T03:19:25.830Z,12.15
2022-10-16T03:21:52.512Z,12.11
2022-10-16T03:24:19.162Z,12.10
2022-10-16T03:26:45.838Z,12.02
2022-10-16T03:29:12.391Z,12.01
2022-10-16T03:31:38.993Z,12.00
2022-10-16T03:34:05.643Z,11.99
2022-10-16T03:36:32.308Z,12.01
2022-10-16T03:38:58.924Z,11.98
2022-10-16T03:41:25.530Z,11.97
2022-10-16T03:43:52.197Z,11.95
2022-10-16T03:46:18.778Z,11.92
2022-10-16T03:48:45.344Z,11.89
2022-10-16T03:51:11.919Z,11.83
2022-10-16T03:53:38.595Z,11.79
2022-10-16T03:56:05.406Z,11.76
2022-10-16T03:58:32.045Z,11.75
2022-10-16T04:00:58.676Z,11.73
2022-10-16T04:03:25.392Z,11.69
2022-10-16T04:05:52.125Z,11.65
2022-10-16T04:08:19.405Z,11.63
2022-10-16T04:10:46.368Z,11.56
2022-10-16T04:13:13.571Z,11.52
2022-10-16T04:15:40.320Z,11.50
2022-10-16T04:18:07.232Z,11.49
2022-10-16T04:20:34.684Z,11.45
2022-10-16T04:23:01.586Z,11.38
2022-10-16T04:25:28.334Z,11.35
2022-10-16T04:27:55.310Z,11.37
2022-10-16T04:30:23.911Z,11.35
2022-10-16T04:32:52.272Z,11.33
2022-10-16T04:35:20.506Z,11.30
2022-10-16T04:37:47.448Z,11.30
2022-10-16T04:40:14.597Z,11.32
2022-10-16T04:42:41.786Z,11.31
2022-10-16T04:45:12.020Z,11.27
2022-10-16T04:47:41.585Z,11.25
2022-10-16T04:50:08.659Z,11.27
2022-10-16T04:55:07.273Z,11.28
2022-10-16T04:57:34.452Z,11.26
2022-10-16T05:00:01.519Z,11.27
2022-10-16T05:02:28.260Z,11.28
2022-10-16T05:04:54.900Z,11.29
2022-10-16T05:07:21.545Z,11.31
2022-10-16T05:09:48.172Z,11.31
2022-10-16T05:12:14.806Z,11.36
2022-10-16T05:14:41.884Z,11.36
2022-10-16T05:17:08.474Z,11.36
2022-10-16T05:19:35.142Z,11.37
2022-10-16T05:22:01.774Z,11.37
2022-10-16T05:24:28.404Z,11.40
2022-10-16T05:26:55.063Z,11.42
2022-10-16T05:29:22.104Z,11.47
2022-10-16T05:31:52.887Z,11.48
2022-10-16T05:34:19.761Z,11.52
2022-10-16T05:36:47.385Z,11.56
2022-10-16T05:39:16.053Z,11.66
2022-10-16T05:41:42.841Z,11.75
2022-10-16T05:44:09.641Z,11.83
2022-10-16T05:46:36.253Z,11.91
2022-10-16T05:49:03.158Z,12.01
2022-10-16T05:51:29.793Z,12.09
2022-10-16T05:53:56.443Z,12.21
2022-10-16T05:56:23.033Z,12.25
2022-10-16T05:58:49.609Z,12.35
2022-10-16T06:01:21.792Z,12.46
2022-10-16T06:03:48.577Z,12.55
2022-10-16T06:06:21.326Z,12.63
2022-10-16T06:08:49.075Z,12.79
2022-10-16T06:11:18.223Z,12.80
2022-10-16T06:13:47.305Z,12.90
2022-10-16T06:16:14.436Z,12.94
2022-10-16T06:18:41.435Z,13.04
2022-10-16T06:21:29.210Z,13.15
2022-10-16T06:23:57.543Z,13.24
2022-10-16T06:26:27.129Z,13.34
2022-10-16T06:28:56.390Z,13.49
2022-10-16T06:31:23.865Z,13.60
2022-10-16T06:33:54.185Z,13.68
2022-10-16T06:36:21.774Z,13.73
2022-10-16T06:38:48.436Z,13.79
2022-10-16T06:41:18.794Z,13.83
2022-10-16T06:43:46.553Z,13.96
2022-10-16T06:46:16.404Z,14.14
2022-10-16T06:48:43.250Z,14.34
2022-10-16T06:51:14.429Z,14.34
2022-10-16T06:54:01.896Z,14.47
2022-10-16T06:56:31.419Z,14.67
2022-10-16T06:58:58.067Z,14.72
2022-10-16T07:01:26.738Z,14.85
2022-10-16T07:03:53.820Z,14.83
2022-10-16T07:06:23.609Z,15.04
2022-10-16T07:08:50.782Z,14.90
2022-10-16T07:11:22.750Z,15.05
2022-10-16T07:13:54.390Z,15.12
2022-10-16T07:16:25.842Z,15.32
2022-10-16T07:18:55.380Z,15.39
2022-10-16T07:21:24.063Z,15.41
2022-10-16T07:24:00.273Z,15.60
2022-10-16T07:26:28.365Z,15.85
2022-10-16T07:28:55.340Z,15.90
2022-10-16T07:31:22.366Z,15.82
2022-10-16T07:33:49.802Z,15.89
2022-10-16T07:36:18.893Z,16.26
2022-10-16T07:38:47.143Z,16.45
2022-10-16T07:41:17.238Z,16.65
2022-10-16T07:43:51.640Z,16.65
2022-10-16T07:46:20.300Z,16.86
2022-10-16T07:48:48.267Z,16.66
2022-10-16T07:51:16.774Z,16.85
2022-10-16T07:53:43.365Z,17.13
2022-10-16T07:56:10.382Z,17.48
2022-10-16T07:58:38.265Z,17.63
2022-10-16T08:01:10.334Z,17.85
2022-10-16T08:03:37.417Z,17.52
2022-10-16T08:06:05.303Z,17.49
2022-10-16T08:08:32.077Z,17.49
2022-10-16T08:10:58.694Z,17.61
2022-10-16T08:13:25.387Z,17.50
2022-10-16T08:15:51.928Z,17.47
2022-10-16T08:18:19.079Z,17.78
2022-10-16T08:21:00.027Z,17.76
2022-10-16T08:23:27.767Z,17.91
2022-10-16T08:25:55.289Z,18.16
2022-10-16T08:28:23.031Z,18.18
2022-10-16T08:30:49.718Z,18.27
2022-10-16T08:33:16.386Z,18.40
2022-10-16T08:35:43.014Z,18.44
2022-10-16T08:38:10.270Z,18.72
2022-10-16T08:40:38.294Z,18.88
2022-10-16T08:43:15.382Z,19.21
2022-10-16T08:46:20.374Z,19.51
2022-10-16T08:48:52.727Z,19.41
2022-10-16T08:51:25.923Z,19.39
2022-10-16T08:53:56.504Z,19.47
2022-10-16T08:56:24.347Z,19.64
2022-10-16T08:58:55.188Z,19.68
2022-10-16T09:01:36.467Z,19.70
2022-10-16T09:04:29.092Z,19.91
2022-10-16T09:07:26.452Z,19.63
2022-10-16T09:10:01.980Z,19.77
2022-10-16T09:12:43.582Z,19.83
2022-10-16T09:15:25.675Z,19.52
2022-10-16T09:18:15.886Z,19.79
2022-10-16T09:21:15.456Z,20.01
2022-10-16T09:23:42.103Z,20.40
2022-10-16T09:26:13.893Z,20.63
2022-10-16T09:28:41.314Z,21.11
2022-10-16T09:31:17.033Z,20.94
2022-10-16T09:33:46.320Z,20.82
2022-10-16T09:36:14.735Z,20.99
2022-10-16T09:38:41.583Z,21.00
2022-10-16T09:41:24.757Z,21.08
2022-10-16T09:43:59.995Z,21.36
2022-10-16T09:46:34.099Z,21.88
2022-10-16T09:49:02.897Z,21.83
2022-10-16T09:51:37.674Z,21.91
2022-10-16T09:54:16.801Z,22.05
2022-10-16T09:56:46.560Z,22.58
2022-10-16T09:59:16.160Z,22.74
2022-10-16T10:01:51.900Z,22.19
2022-10-16T10:04:23.675Z,22.38
2022-10-16T10:06:55.330Z,23.35
2022-10-16T10:09:21.762Z,23.48
2022-10-16T10:11:54.350Z,23.44
2022-10-16T10:14:39.601Z,23.83
2022-10-16T10:17:06.063Z,23.99
2022-10-16T10:19:51.031Z,23.84
2022-10-16T10:22:33.110Z,24.17
2022-10-16T10:25:14.750Z,24.09
2022-10-16T10:28:19.272Z,23.49
2022-10-16T10:31:04.179Z,23.88
2022-10-16T10:33:54.779Z,24.33
2022-10-16T10:36:39.041Z,24.98
2022-10-16T10:42:31.186Z,24.40
2022-10-16T10:45:17.997Z,24.07
2022-10-16T10:48:14.377Z,24.70
2022-10-16T10:50:46.595Z,25.25
2022-10-16T10:53:25.937Z,25.00
2022-10-16T10:56:05.617Z,24.60
2022-10-16T10:59:00.251Z,24.84
2022-10-16T11:01:47.536Z,24.34
2022-10-16T11:04:14.146Z,24.63
2022-10-16T11:06:45.599Z,24.68
2022-10-16T11:09:19.056Z,24.98
2022-10-16T11:11:50.000Z,25.23
2022-10-16T11:14:22.409Z,26.26
2022-10-16T11:17:01.789Z,25.61
2022-10-16T11:19:31.139Z,25.43
2022-10-16T11:22:06.020Z,24.77
2022-10-16T11:24:32.584Z,25.80
2022-10-16T11:27:05.502Z,26.81
2022-10-16T11:29:35.930Z,27.30
2022-10-16T11:32:35.212Z,26.30
2022-10-16T11:35:15.307Z,25.99
2022-10-16T11:37:45.581Z,26.39
2022-10-16T11:40:44.563Z,26.58
2022-10-16T11:43:16.376Z,26.54
2022-10-16T11:46:06.477Z,26.44
2022-10-16T11:48:46.625Z,26.95
2022-10-16T11:51:39.913Z,26.81
2022-10-16T11:54:28.098Z,26.28
2022-10-16T11:57:00.560Z,26.53
2022-10-16T11:59:27.065Z,26.72
2022-10-16T12:02:15.679Z,27.79
2022-10-16T12:04:51.921Z,27.19
2022-10-16T12:07:28.918Z,27.04
2022-10-16T12:09:57.299Z,26.56
2022-10-16T12:12:38.611Z,27.20
2022-10-16T12:15:46.940Z,27.65
2022-10-16T12:18:25.995Z,27.82
2022-10-16T12:21:08.727Z,27.87
2022-10-16T12:23:47.520Z,28.51
2022-10-16T12:26:14.466Z,27.76
2022-10-16T12:28:41.735Z,27.88
2022-10-16T12:31:13.744Z,28.29
2022-10-16T12:34:01.057Z,28.76
2022-10-16T12:36:34.464Z,28.52
2022-10-16T12:39:02.239Z,29.00
2022-10-16T12:41:40.813Z,29.25
2022-10-16T12:44:24.578Z,28.89
2022-10-16T12:46:52.003Z,29.52
2022-10-16T12:49:39.650Z,29.41
2022-10-16T12:52:24.942Z,29.18
2022-10-16T12:54:52.175Z,28.69
2022-10-16T12:58:01.058Z,28.67
2022-10-16T13:00:51.989Z,28.85
2022-10-16T13:03:43.559Z,29.36
2022-10-16T13:06:35.481Z,28.99
2022-10-16T13:09:20.212Z,28.76
2022-10-16T13:11:58.764Z,28.97
2022-10-16T13:14:25.435Z,28.62
2022-10-16T13:17:14.602Z,29.25
2022-10-16T13:19:49.854Z,29.36
2022-10-16T13:22:40.214Z,29.73
2022-10-16T13:25:39.531Z,29.55
2022-10-16T13:28:11.352Z,28.65
2022-10-16T13:30:42.680Z,28.81
2022-10-16T13:33:15.638Z,29.02
2022-10-16T13:35:51.565Z,29.26
2022-10-16T13:38:22.203Z,28.99
2022-10-16T13:41:03.754Z,28.77
2022-10-16T13:43:43.576Z,28.37
2022-10-16T13:46:16.534Z,28.76
2022-10-16T13:48:43.904Z,29.01
2022-10-16T13:51:19.044Z,28.95
2022-10-16T13:53:46.760Z,28.26
2022-10-16T13:56:20.596Z,28.14
2022-10-16T13:58:48.371Z,28.15
2022-10-16T14:01:19.337Z,28.71
2022-10-16T14:03:47.711Z,28.82
2022-10-16T14:06:22.959Z,28.76
2022-10-16T14:08:55.598Z,29.10
2022-10-16T14:11:27.148Z,29.04
2022-10-16T14:13:54.608Z,28.67
2022-10-16T14:16:24.554Z,28.32
2022-10-16T14:19:03.448Z,28.18
2022-10-16T14:21:30.375Z,28.13
2022-10-16T14:23:57.315Z,27.55
2022-10-16T14:26:26.835Z,27.37
2022-10-16T14:29:15.469Z,28.09
2022-10-16T14:31:42.886Z,27.74
2022-10-16T14:34:28.445Z,27.48
2022-10-16T14:37:02.022Z,27.44
2022-10-16T14:39:29.357Z,27.55
2022-10-16T14:41:58.716Z,27.76
2022-10-16T14:44:30.914Z,28.11
2022-10-16T14:46:58.166Z,27.73
2022-10-16T14:49:25.261Z,27.33
2022-10-16T14:51:53.065Z,27.17
2022-10-16T14:54:20.568Z,27.08
2022-10-16T14:56:56.662Z,27.44
2022-10-16T14:59:33.050Z,27.87
2022-10-16T15:01:59.839Z,28.12
2022-10-16T15:04:26.468Z,28.18
2022-10-16T15:06:53.169Z,28.03
2022-10-16T15:09:19.850Z,27.64
2022-10-16T15:11:47.600Z,26.91
2022-10-16T15:16:47.060Z,26.80
2022-10-16T15:19:13.805Z,26.96
2022-10-16T15:21:41.116Z,26.28
2022-10-16T15:24:15.335Z,25.70
2022-10-16T15:26:46.943Z,25.22
2022-10-16T15:29:14.072Z,24.76
2022-10-16T15:31:43.528Z,24.14
2022-10-16T15:34:11.190Z,23.42
2022-10-16T15:36:39.382Z,22.98
2022-10-16T15:39:17.444Z,22.50
2022-10-16T15:41:46.520Z,22.12
2022-10-16T15:44:13.161Z,21.69
2022-10-16T15:46:39.842Z,21.38
2022-10-16T15:49:07.013Z,21.14
2022-10-16T15:51:35.068Z,20.89
2022-10-16T15:54:02.874Z,20.68
2022-10-16T15:56:34.170Z,20.29
2022-10-16T15:59:03.946Z,20.07
2022-10-16T16:01:39.012Z,19.71
2022-10-16T16:04:15.232Z,19.47
2022-10-16T16:06:52.801Z,19.28
2022-10-16T16:09:20.528Z,19.07
2022-10-16T16:11:48.524Z,18.86
2022-10-16T16:14:16.666Z,18.71
2022-10-16T16:16:44.724Z,18.54
2022-10-16T16:19:11.914Z,18.38
2022-10-16T16:21:42.262Z,18.26
2022-10-16T16:24:09.917Z,18.11
2022-10-16T16:26:44.544Z,17.99
2022-10-16T16:29:14.170Z,17.87
2022-10-16T16:31:43.088Z,17.77
2022-10-16T16:34:10.020Z,17.68
2022-10-16T16:36:37.980Z,17.59
2022-10-16T16:39:05.905Z,17.49
2022-10-16T16:41:33.950Z,17.43
2022-10-16T16:44:14.415Z,17.34
2022-10-16T16:46:44.392Z,17.28
2022-10-16T16:49:13.829Z,17.17
2022-10-16T16:51:43.062Z,17.13
2022-10-16T16:54:11.698Z,17.09
2022-10-16T16:56:43.549Z,17.01
2022-10-16T16:59:18.876Z,16.94
2022-10-16T17:01:49.130Z,16.89
2022-10-16T17:04:19.902Z,16.83
2022-10-16T17:06:46.777Z,16.79
2022-10-16T17:09:14.879Z,16.76
2022-10-16T17:11:45.535Z,16.70
2022-10-16T17:14:12.647Z,16.65
2022-10-16T17:16:41.238Z,16.61
2022-10-16T17:19:12.875Z,16.54
2022-10-16T17:21:46.379Z,16.53
2022-10-16T17:24:14.705Z,16.48
2022-10-16T17:26:48.751Z,16.46
2022-10-16T17:29:18.903Z,16.39
2022-10-16T17:31:49.980Z,16.33
2022-10-16T17:34:16.919Z,16.29
2022-10-16T17:36:46.915Z,16.26
2022-10-16T17:39:19.785Z,16.18
2022-10-16T17:41:52.706Z,16.10
2022-10-16T17:44:22.262Z,16.08
2022-10-16T17:46:53.950Z,16.03
2022-10-16T17:49:22.108Z,16.01
2022-10-16T17:51:55.450Z,15.96
2022-10-16T17:54:22.166Z,15.90
2022-10-16T17:56:50.164Z,15.84
2022-10-16T17:59:17.945Z,15.80
2022-10-16T18:01:46.431Z,15.79
2022-10-16T18:04:16.276Z,15.76
2022-10-16T18:06:44.950Z,15.73
2022-10-16T18:09:18.059Z,15.68
2022-10-16T18:11:46.095Z,15.62
2022-10-16T18:14:15.623Z,15.59
2022-10-16T18:16:43.872Z,15.56
2022-10-16T18:19:12.104Z,15.48
2022-10-16T18:21:40.539Z,15.46
2022-10-16T18:24:09.679Z,15.43
2022-10-16T18:26:38.502Z,15.42
2022-10-16T18:29:06.641Z,15.40
2022-10-16T18:31:37.753Z,15.35
2022-10-16T18:34:07.380Z,15.35
2022-10-16T18:36:35.746Z,15.36
2022-10-16T18:39:09.493Z,15.34
2022-10-16T18:41:40.393Z,15.32
2022-10-16T18:44:08.286Z,15.31
2022-10-16T18:46:34.975Z,15.28
2022-10-16T18:49:01.866Z,15.27
2022-10-16T18:51:32.579Z,15.24
2022-10-16T18:54:02.057Z,15.24
2022-10-16T18:56:30.620Z,15.25
2022-10-16T18:59:00.012Z,15.19
2022-10-16T19:01:29.834Z,15.16
2022-10-16T19:03:58.925Z,15.17
2022-10-16T19:06:27.160Z,15.16
2022-10-16T19:08:55.805Z,15.13
2022-10-16T19:11:24.661Z,15.07
2022-10-16T19:13:52.396Z,15.03
2022-10-16T19:16:22.870Z,15.00
2022-10-16T19:18:52.297Z,14.95
2022-10-16T19:21:19.293Z,14.89
2022-10-16T19:23:46.185Z,14.87
2022-10-16T19:26:16.102Z,14.85
2022-10-16T19:28:43.948Z,14.80
2022-10-16T19:31:13.946Z,14.76
2022-10-16T19:33:41.320Z,14.69
2022-10-16T19:36:12.295Z,14.67
2022-10-16T19:38:42.802Z,14.57
2022-10-16T19:41:14.955Z,14.49
2022-10-16T19:43:42.287Z,14.40
2022-10-16T19:46:11.179Z,14.30
2022-10-16T19:48:38.498Z,14.17
2022-10-16T19:51:05.322Z,14.14
2022-10-16T19:53:32.379Z,14.00
2022-10-16T19:55:59.806Z,13.95
2022-10-16T19:58:27.735Z,13.83
2022-10-16T20:00:55.861Z,13.80
2022-10-16T20:03:22.507Z,13.83
2022-10-16T20:05:55.067Z,13.82
2022-10-16T20:08:24.010Z,13.81
2022-10-16T20:10:55.573Z,13.83
2022-10-16T20:13:22.574Z,13.81
2022-10-16T20:15:50.602Z,13.83
2022-10-16T20:18:17.401Z,13.83
2022-10-16T20:20:49.395Z,13.84
2022-10-16T20:23:15.983Z,13.83
2022-10-16T20:25:45.921Z,13.83
2022-10-16T20:28:15.848Z,13.82
2022-10-16T20:30:45.326Z,13.82
2022-10-16T20:33:12.687Z,13.81
2022-10-16T20:35:47.005Z,13.81
2022-10-16T20:38:14.738Z,13.75
2022-10-16T20:40:44.167Z,13.68
2022-10-16T20:43:16.292Z,13.62
2022-10-16T20:45:43.559Z,13.56
2022-10-16T20:48:11.449Z,13.52
2022-10-16T20:50:38.607Z,13.44
2022-10-16T20:53:05.789Z,13.41
2022-10-16T20:55:35.911Z,13.39
2022-10-16T20:58:02.908Z,13.36
2022-10-16T21:00:29.563Z,13.34
2022-10-16T21:02:57.345Z,13.30
2022-10-16T21:05:24.119Z,13.20
2022-10-16T21:07:50.735Z,13.13
2022-10-16T21:10:17.639Z,13.00
2022-10-16T21:12:47.916Z,12.94
2022-10-16T21:15:15.904Z,12.90
2022-10-16T21:17:42.610Z,12.81
2022-10-16T21:20:09.553Z,12.74
2022-10-16T21:22:36.281Z,12.70
2022-10-16T21:25:02.883Z,12.67
2022-10-16T21:27:29.450Z,12.69
2022-10-16T21:29:57.090Z,12.70
2022-10-16T21:32:25.398Z,12.69
2022-10-16T21:34:53.901Z,12.76
2022-10-16T21:37:21.561Z,12.89
2022-10-16T21:39:48.111Z,12.99
2022-10-16T21:42:16.165Z,13.04
2022-10-16T21:44:42.761Z,13.09
2022-10-16T21:47:10.564Z,13.11
2022-10-16T21:49:38.481Z,13.12
2022-10-16T21:52:06.840Z,13.13
2022-10-16T21:54:34.657Z,13.13
2022-10-16T21:59:35.296Z,13.18
2022-10-16T22:02:03.382Z,13.17
2022-10-16T22:04:31.236Z,13.17
2022-10-16T22:06:59.928Z,13.15
2022-10-16T22:09:27.488Z,13.15
2022-10-16T22:11:55.470Z,13.17
2022-10-16T22:14:23.176Z,13.16
2022-10-16T22:16:51.366Z,13.17
2022-10-16T22:19:20.427Z,13.16
2022-10-16T22:21:49.249Z,13.17
2022-10-16T22:24:17.012Z,13.16
2022-10-16T22:26:45.554Z,13.14
2022-10-16T22:29:14.402Z,13.12
2022-10-16T22:31:43.311Z,13.10
2022-10-16T22:34:12.382Z,13.10
2022-10-16T22:36:40.337Z,13.06
2022-10-16T22:39:08.224Z,13.03
2022-10-16T22:41:36.290Z,13.01
2022-10-16T22:44:04.331Z,12.99
2022-10-16T22:46:32.379Z,12.97
2022-10-16T22:49:00.244Z,12.96
2022-10-16T22:51:28.144Z,12.95
2022-10-16T22:53:57.964Z,12.94
2022-10-16T22:56:26.572Z,12.94
2022-10-16T22:58:53.350Z,12.95
2022-10-16T23:01:30.027Z,12.95
2022-10-16T23:03:57.789Z,12.94
2022-10-16T23:06:25.587Z,12.91
2022-10-16T23:09:03.591Z,12.89
2022-10-16T23:11:33.331Z,12.88
2022-10-16T23:14:00.969Z,12.85
2022-10-16T23:16:27.626Z,12.84
2022-10-16T23:18:54.350Z,12.84
2022-10-16T23:21:24.971Z,12.86
2022-10-16T23:23:54.281Z,12.84
2022-10-16T23:26:25.148Z,12.81
2022-10-16T23:28:53.481Z,12.76
2022-10-16T23:31:21.545Z,12.74
2022-10-16T23:33:49.351Z,12.69
2022-10-16T23:36:19.582Z,12.67
2022-10-16T23:38:47.099Z,12.68
2022-10-16T23:41:16.669Z,12.66
2022-10-16T23:43:45.238Z,12.61
2022-10-16T23:46:14.375Z,12.60
2022-10-16T23:48:42.691Z,12.57
2022-10-16T23:51:10.373Z,12.52
2022-10-16T23:53:38.881Z,12.47
2022-10-16T23:56:06.932Z,12.43
2022-10-16T23:58:34.659Z,12.37
